Data Viewer
| City | State | Eastern Time | Source | Temp | DewPt | RH | BP | 5 Min Precip | Wind Speed | Wind Dir | 5 Min Wind Max | 5 Min Wind Max Dir |
|---|---|---|---|---|---|---|---|---|---|---|---|---|
| Ocean City | NJ | 2026-05-01 22:19 | NCAWOS | 52 | 29.95 | 8 | SSW | |||||
| Ocean City | NJ | 2026-05-02 13:14 | NCAWOS | 57 | 29.88 | 6 | NNW | |||||
| Ocean City | NJ | 2026-05-02 15:04 | NCAWOS | 59 | 29.86 | 6 | NNW | |||||
| Ocean City | NJ | 2026-05-02 14:29 | NCAWOS | 57 | 29.88 | 7 | NNW | |||||
| Ocean City | NJ | 2026-05-02 14:24 | NCAWOS | 57 | 29.88 | 7 | NW | |||||
| Ocean City | NJ | 2026-05-02 14:09 | NCAWOS | 57 | 29.88 | 6 | NNW | |||||
| Ocean City | NJ | 2026-05-02 14:04 | NCAWOS | 57 | 29.88 | 7 | NNW | |||||
| Ocean City | NJ | 2026-05-02 13:24 | NCAWOS | 57 | 29.88 | 3 | NW | |||||
| Ocean City | NJ | 2026-05-02 13:19 | NCAWOS | 57 | 29.89 | 6 | NNW | |||||
| Ocean City | NJ | 2026-05-02 13:04 | NCAWOS | 57 | 29.89 | 0 | N | |||||
| Ocean City | NJ | 2026-05-02 15:14 | NCAWOS | 59 | 29.86 | 7 | NW | |||||
| Ocean City | NJ | 2026-05-02 12:19 | NCAWOS | 57 | 29.90 | 5 | NW | |||||
| Ocean City | NJ | 2026-05-02 12:14 | NCAWOS | 57 | 29.91 | 6 | NW | |||||
| Ocean City | NJ | 2026-05-02 12:09 | NCAWOS | 57 | 29.91 | 6 | WNW | |||||
| Ocean City | NJ | 2026-05-02 12:04 | NCAWOS | 57 | 29.92 | 7 | WNW | |||||
| Ocean City | NJ | 2026-05-02 11:14 | NCAWOS | 55 | 29.90 | 8 | WNW | |||||
| Ocean City | NJ | 2026-05-02 11:09 | NCAWOS | 55 | 29.90 | 8 | NW | |||||
| Ocean City | NJ | 2026-05-02 11:04 | NCAWOS | 55 | 29.90 | 8 | NW | |||||
| Ocean City | NJ | 2026-05-02 10:24 | NCAWOS | 55 | 29.89 | 9 | NW | |||||
| Ocean City | NJ | 2026-05-02 15:09 | NCAWOS | 59 | 29.86 | 6 | N | |||||
| Ocean City | NJ | 2026-05-02 15:24 | NCAWOS | 59 | 29.86 | 5 | NW | |||||
| Ocean City | NJ | 2026-05-02 10:04 | NCAWOS | 55 | 29.91 | 8 | NW | |||||
| Ocean City | NJ | 2026-05-02 19:14 | NCAWOS | 59 | 29.85 | 6 | NNW | |||||
| Ocean City | NJ | 2026-05-02 21:14 | NCAWOS | 54 | 29.87 | 0 | N | |||||
| Ocean City | NJ | 2026-05-02 21:09 | NCAWOS | 54 | 29.87 | 0 | N | |||||
| Ocean City | NJ | 2026-05-02 21:04 | NCAWOS | 54 | 29.86 | 0 | N | |||||
| Ocean City | NJ | 2026-05-02 20:14 | NCAWOS | 54 | 29.85 | 0 | N | |||||
| Ocean City | NJ | 2026-05-02 20:09 | NCAWOS | 54 | 29.85 | 0 | N | |||||
| Ocean City | NJ | 2026-05-02 20:04 | NCAWOS | 54 | 29.85 | 0 | N | |||||
| Ocean City | NJ | 2026-05-02 19:29 | NCAWOS | 57 | 29.85 | 3 | ESE | |||||
| Ocean City | NJ | 2026-05-02 19:24 | NCAWOS | 59 | 29.84 | 3 | N | |||||
| Ocean City | NJ | 2026-05-02 19:04 | NCAWOS | 59 | 29.85 | 5 | NNW | |||||
| Ocean City | NJ | 2026-05-02 16:04 | NCAWOS | 61 | 29.84 | 6 | NNW | |||||
| Ocean City | NJ | 2026-05-02 18:24 | NCAWOS | 59 | 29.84 | 6 | NNW | |||||
| Ocean City | NJ | 2026-05-02 18:09 | NCAWOS | 59 | 29.84 | 8 | NNW | |||||
| Ocean City | NJ | 2026-05-02 18:04 | NCAWOS | 61 | 29.85 | 8 | NNW | |||||
| Ocean City | NJ | 2026-05-02 17:14 | NCAWOS | 61 | 29.84 | 6 | NW | |||||
| Ocean City | NJ | 2026-05-02 17:09 | NCAWOS | 61 | 29.84 | 7 | NW | |||||
| Ocean City | NJ | 2026-05-02 17:04 | NCAWOS | 61 | 29.84 | 6 | NNW | |||||
| Ocean City | NJ | 2026-05-02 16:24 | NCAWOS | 61 | 29.83 | 10 | NNW | |||||
| Ocean City | NJ | 2026-05-02 16:14 | NCAWOS | 61 | 29.83 | 7 | NNW | |||||
| Ocean City | NJ | 2026-05-02 10:09 | NCAWOS | 55 | 29.90 | 8 | NW | |||||
| Ocean City | NJ | 2026-05-02 09:24 | NCAWOS | 55 | 29.91 | 9 | NW | |||||
| Ocean City | NJ | 2026-05-01 23:04 | NCAWOS | 52 | 29.92 | 10 | S | |||||
| Ocean City | NJ | 2026-05-02 01:04 | NCAWOS | 52 | 29.93 | 9 | SSW | |||||
| Ocean City | NJ | 2026-05-02 03:04 | NCAWOS | 52 | 29.90 | 7 | SSW | |||||
| Ocean City | NJ | 2026-05-02 02:24 | NCAWOS | 52 | 29.91 | 8 | SSW | |||||
| Ocean City | NJ | 2026-05-02 02:14 | NCAWOS | 52 | 29.90 | 7 | SSW | |||||
| Ocean City | NJ | 2026-05-02 02:09 | NCAWOS | 52 | 29.91 | 9 | SSW | |||||
| Ocean City | NJ | 2026-05-02 02:04 | NCAWOS | 52 | 29.92 | 8 | SSW | |||||
| Ocean City | NJ | 2026-05-02 01:24 | NCAWOS | 52 | 29.93 | 6 | S | |||||
| Ocean City | NJ | 2026-05-02 01:14 | NCAWOS | 52 | 29.93 | 7 | S | |||||
| Ocean City | NJ | 2026-05-02 00:24 | NCAWOS | 52 | 29.93 | 9 | SSW | |||||
| Ocean City | NJ | 2026-05-02 03:14 | NCAWOS | 52 | 29.90 | 6 | SSW | |||||
| Ocean City | NJ | 2026-05-02 00:19 | NCAWOS | 52 | 29.93 | 9 | SSW | |||||
| Ocean City | NJ | 2026-05-02 00:14 | NCAWOS | 52 | 29.93 | 9 | SSW | |||||
| Ocean City | NJ | 2026-05-02 00:09 | NCAWOS | 52 | 29.93 | 9 | SSW | |||||
| Ocean City | NJ | 2026-05-02 00:04 | NCAWOS | 52 | 29.93 | 11 | SSW | |||||
| Ocean City | NJ | 2026-05-01 23:24 | NCAWOS | 52 | 29.92 | 6 | SSW | |||||
| Ocean City | NJ | 2026-05-01 23:19 | NCAWOS | 52 | 29.92 | 9 | SSW | |||||
| Ocean City | NJ | 2026-05-01 23:14 | NCAWOS | 52 | 29.92 | 7 | SSW | |||||
| Ocean City | NJ | 2026-05-01 23:09 | NCAWOS | 52 | 29.92 | 10 | S | |||||
| Ocean City | NJ | 2026-05-02 03:09 | NCAWOS | 52 | 29.90 | 7 | SSW | |||||
| Ocean City | NJ | 2026-05-02 03:19 | NCAWOS | 52 | 29.90 | 6 | SSW | |||||
| Ocean City | NJ | 2026-05-02 09:09 | NCAWOS | 54 | 29.91 | 10 | NW | |||||
| Ocean City | NJ | 2026-05-02 06:24 | NCAWOS | 50 | 29.90 | 0 | N | |||||
| Ocean City | NJ | 2026-05-02 09:04 | NCAWOS | 54 | 29.91 | 9 | NW | |||||
| Ocean City | NJ | 2026-05-02 08:19 | NCAWOS | 52 | 29.92 | 7 | WNW | |||||
| Ocean City | NJ | 2026-05-02 08:14 | NCAWOS | 52 | 29.92 | 8 | WNW | |||||
| Ocean City | NJ | 2026-05-02 08:09 | NCAWOS | 52 | 29.92 | 9 | WNW | |||||
| Ocean City | NJ | 2026-05-02 08:04 | NCAWOS | 52 | 29.91 | 8 | WNW | |||||
| Ocean City | NJ | 2026-05-02 07:24 | NCAWOS | 52 | 29.92 | 0 | N | |||||
| Ocean City | NJ | 2026-05-02 07:09 | NCAWOS | 52 | 29.91 | 0 | N | |||||
| Ocean City | NJ | 2026-05-02 07:04 | NCAWOS | 52 | 29.91 | 0 | N | |||||
| Ocean City | NJ | 2026-05-02 06:14 | NCAWOS | 50 | 29.89 | 0 | N | |||||
| Ocean City | NJ | 2026-05-02 04:04 | NCAWOS | 52 | 29.90 | 0 | N | |||||
| Ocean City | NJ | 2026-05-02 06:09 | NCAWOS | 52 | 29.89 | 0 | N | |||||
| Ocean City | NJ | 2026-05-02 06:04 | NCAWOS | 52 | 29.89 | 0 | N | |||||
| Ocean City | NJ | 2026-05-02 05:24 | NCAWOS | 50 | 29.90 | 0 | N | |||||
| Ocean City | NJ | 2026-05-02 05:14 | NCAWOS | 50 | 29.90 | 0 | N | |||||
| Ocean City | NJ | 2026-05-02 05:04 | NCAWOS | 50 | 29.90 | 0 | N | |||||
| Ocean City | NJ | 2026-05-02 04:29 | NCAWOS | 52 | 29.90 | 0 | N | |||||
| Ocean City | NJ | 2026-05-02 04:24 | NCAWOS | 52 | 29.90 | 0 | N | |||||
| Ocean City | NJ | 2026-05-02 04:09 | NCAWOS | 52 | 29.90 | 0 | N | |||||
| Ocean City | NJ | 2026-05-02 21:19 | NCAWOS | 54 | 29.87 | 0 | N |
data collection created in 0.014689922332764 (queried in 0.003845) rendered in: 0.00013899803161621

